Time;durP1;ratioP1;P1;durP2;ratioP2;P2;SDS_P1;SDS_P2;PMS_P1;PMS_P2;Temp;Humidity;BMP_temperature;BMP_pressure;BME280_temperature;BME280_humidity;BME280_pressure;Samples;Min_cycle;Max_cycle;Signal;HPM_P1;HPM_P2
2023/07/01 00:01:59;;;;;;;4.45;4.05;;;;;;;17.18;88.59;63778.91;5063183;28;20220;-76
2023/07/01 00:04:27;;;;;;;4.82;4.32;;;;;;;17.18;89.15;63776.34;5046636;28;20256;-76
2023/07/01 00:06:56;;;;;;;4.32;4.13;;;;;;;17.09;89.12;63769.53;5044816;28;20245;-75
2023/07/01 00:09:23;;;;;;;4.70;4.35;;;;;;;17.09;88.04;63766.97;5050995;28;20546;-77
2023/07/01 00:11:50;;;;;;;5.03;4.63;;;;;;;17.06;88.01;63763.84;5044788;28;20221;-76
2023/07/01 00:14:18;;;;;;;5.70;4.30;;;;;;;17.11;88.15;63772.16;5044203;28;20272;-77
2023/07/01 00:16:45;;;;;;;5.18;4.78;;;;;;;17.08;89.38;63765.94;5062115;28;20220;-76
2023/07/01 00:19:11;;;;;;;5.13;4.80;;;;;;;17.06;89.88;63766.41;5062780;28;20208;-77
2023/07/01 00:21:39;;;;;;;5.32;4.93;;;;;;;17.04;91.24;63762.28;5045662;28;20240;-77
2023/07/01 00:24:08;;;;;;;4.93;4.50;;;;;;;17.05;92.19;63762.81;5050071;28;20200;-76
2023/07/01 00:26:35;;;;;;;4.85;4.45;;;;;;;17.02;91.09;63757.09;5062580;28;20224;-77
2023/07/01 00:29:02;;;;;;;4.88;4.47;;;;;;;16.96;89.99;63751.38;5047911;28;20201;-77
2023/07/01 00:31:28;;;;;;;5.10;3.90;;;;;;;16.98;89.84;63755.53;5055567;28;20569;-77
2023/07/01 00:33:55;;;;;;;4.30;4.00;;;;;;;16.90;90.67;63749.75;5050252;28;20221;-78
2023/07/01 00:36:22;;;;;;;4.82;4.53;;;;;;;16.87;90.92;63744.06;5069740;28;20220;-76
2023/07/01 00:38:49;;;;;;;4.45;4.07;;;;;;;16.76;90.75;63730.56;5068425;28;20227;-75
2023/07/01 00:41:20;;;;;;;4.57;4.28;;;;;;;16.78;93.17;63737.28;5064804;28;20267;-77
2023/07/01 00:43:47;;;;;;;4.70;4.40;;;;;;;16.77;93.94;63733.66;5060249;28;20212;-75
2023/07/01 00:46:16;;;;;;;4.72;4.43;;;;;;;16.70;92.62;63726.38;5048761;28;20225;-78
2023/07/01 00:48:43;;;;;;;4.55;4.15;;;;;;;16.68;91.85;63721.72;5055049;28;20201;-79
2023/07/01 00:51:10;;;;;;;4.97;4.57;;;;;;;16.77;90.83;63736.75;5049993;28;20309;-75
2023/07/01 00:53:39;;;;;;;6.07;4.50;;;;;;;16.77;91.72;63731.63;5059570;28;20220;-77
2023/07/01 00:56:06;;;;;;;5.00;4.60;;;;;;;16.72;93.22;63731.03;5057704;28;20221;-79
2023/07/01 00:58:35;;;;;;;4.43;4.13;;;;;;;16.65;94.71;63721.19;5068335;28;20497;-77
2023/07/01 01:01:07;;;;;;;5.32;4.47;;;;;;;16.63;94.29;63717.06;5064089;28;20249;-76
2023/07/01 01:03:43;;;;;;;5.68;5.20;;;;;;;16.66;94.78;63725.31;5052745;28;20204;-77
2023/07/01 01:06:18;;;;;;;4.95;4.65;;;;;;;16.64;96.61;63720.13;5067522;28;20243;-79
2023/07/01 01:08:56;;;;;;;5.63;5.07;;;;;;;16.71;96.57;63729.97;5053119;28;20196;-76
2023/07/01 01:11:25;;;;;;;4.88;4.57;;;;;;;16.67;96.69;63718.63;5049229;28;20248;-77
2023/07/01 01:13:56;;;;;;;4.80;4.47;;;;;;;16.71;96.33;63727.41;5047011;28;20282;-78
2023/07/01 01:16:23;;;;;;;7.00;4.93;;;;;;;16.71;95.96;63727.41;5047412;28;20221;-76
2023/07/01 01:18:52;;;;;;;4.47;3.97;;;;;;;16.75;96.12;63734.16;5047865;28;20201;-76
2023/07/01 01:21:21;;;;;;;5.60;4.65;;;;;;;16.75;96.23;63731.59;5045991;28;20271;-75
2023/07/01 01:23:56;;;;;;;5.65;4.68;;;;;;;16.69;97.34;63728.44;5047332;28;20293;-76
2023/07/01 01:26:23;;;;;;;6.22;4.85;;;;;;;16.73;96.82;63727.44;5058125;28;20256;-76
2023/07/01 01:28:52;;;;;;;5.47;5.07;;;;;;;16.73;97.33;63732.59;5054286;28;20560;-77
2023/07/01 01:31:20;;;;;;;4.95;4.60;;;;;;;16.75;97.73;63731.59;5065999;28;20267;-76
2023/07/01 01:33:48;;;;;;;7.25;4.90;;;;;;;16.75;98.05;63732.09;5055106;28;20233;-76
2023/07/01 01:36:22;;;;;;;5.57;5.03;;;;;;;16.73;99.68;63735.16;5056692;28;20221;-76
2023/07/01 01:38:50;;;;;;;5.22;4.82;;;;;;;16.68;100.00;63727.41;5056029;28;20388;-75
2023/07/01 01:41:23;;;;;;;5.45;4.95;;;;;;;16.65;100.00;63721.69;5061449;28;20220;-76
2023/07/01 01:43:57;;;;;;;5.60;5.13;;;;;;;16.57;100.00;63710.78;5057736;28;20240;-76
2023/07/01 01:46:26;;;;;;;7.85;4.72;;;;;;;16.57;100.00;63715.41;5046040;28;20276;-77
2023/07/01 01:48:56;;;;;;;5.00;4.50;;;;;;;16.53;100.00;63709.19;5047255;28;20352;-76
2023/07/01 01:51:25;;;;;;;7.28;4.78;;;;;;;16.50;100.00;63708.66;5045640;28;20237;-76
2023/07/01 01:53:53;;;;;;;5.45;4.95;;;;;;;16.44;100.00;63702.41;5045820;28;20225;-76
2023/07/01 01:56:21;;;;;;;5.30;4.80;;;;;;;16.44;100.00;63696.72;5052740;28;20221;-77
2023/07/01 01:58:49;;;;;;;8.60;5.68;;;;;;;16.39;100.00;63697.19;5067246;28;20209;-76
2023/07/01 02:01:17;;;;;;;5.40;5.00;;;;;;;16.45;100.00;63702.91;5045575;28;20225;-76
2023/07/01 02:03:45;;;;;;;5.13;4.82;;;;;;;16.44;100.00;63699.84;5046066;28;20206;-76
2023/07/01 02:06:13;;;;;;;4.88;4.50;;;;;;;16.46;100.00;63698.81;5058128;28;20247;-76
2023/07/01 02:08:40;;;;;;;7.53;5.30;;;;;;;16.46;100.00;63701.94;5061760;28;20201;-77
2023/07/01 02:11:07;;;;;;;4.80;4.50;;;;;;;16.46;100.00;63701.38;5054167;28;20328;-76
2023/07/01 02:13:36;;;;;;;5.57;4.88;;;;;;;16.48;100.00;63706.56;5051037;28;20198;-78
2023/07/01 02:16:03;;;;;;;5.97;5.35;;;;;;;16.51;100.00;63711.75;5045916;28;20347;-74
2023/07/01 02:18:31;;;;;;;5.40;5.00;;;;;;;16.51;100.00;63706.59;5045895;28;20201;-75
2023/07/01 02:20:58;;;;;;;6.32;4.97;;;;;;;16.48;100.00;63703.50;5047803;28;20259;-76
2023/07/01 02:23:25;;;;;;;5.10;4.80;;;;;;;16.45;100.00;63702.91;5045755;28;20208;-78
2023/07/01 02:25:52;;;;;;;5.72;5.22;;;;;;;16.47;100.00;63699.88;5048308;28;20225;-78
2023/07/01 02:28:21;;;;;;;4.93;4.65;;;;;;;16.46;100.00;63701.38;5049858;28;20216;-77
2023/07/01 02:30:48;;;;;;;5.95;5.45;;;;;;;16.34;100.00;63689.44;5047399;28;20237;-77
2023/07/01 02:33:15;;;;;;;5.30;4.97;;;;;;;16.33;100.00;63683.25;5044652;28;20273;-77
2023/07/01 02:35:43;;;;;;;5.65;5.15;;;;;;;16.27;100.00;63682.16;5053863;28;20224;-77
2023/07/01 02:38:12;;;;;;;5.85;5.35;;;;;;;16.31;100.00;63686.28;5045603;28;20202;-77
2023/07/01 02:40:39;;;;;;;5.38;4.97;;;;;;;16.24;100.00;63673.88;5063384;28;20224;-79
2023/07/01 02:43:06;;;;;;;5.75;5.15;;;;;;;16.28;100.00;63685.75;5048266;28;20201;-77
2023/07/01 02:45:33;;;;;;;6.13;5.43;;;;;;;16.33;100.00;63685.81;5051252;28;20222;-76
2023/07/01 02:48:00;;;;;;;7.72;5.47;;;;;;;16.30;100.00;63677.56;5045299;28;20232;-77
2023/07/01 02:50:26;;;;;;;5.50;5.10;;;;;;;16.23;100.00;63680.56;5055729;28;20204;-75
2023/07/01 02:52:55;;;;;;;5.97;5.57;;;;;;;16.26;100.00;63680.56;5043862;28;20514;-76
2023/07/01 02:55:21;;;;;;;5.15;4.85;;;;;;;16.28;100.00;63685.22;5053527;28;20239;-76
2023/07/01 02:57:49;;;;;;;6.30;5.75;;;;;;;16.19;100.00;63676.38;5065529;28;20290;-74
2023/07/01 03:00:18;;;;;;;5.55;5.15;;;;;;;16.24;100.00;63678.50;5053224;28;20494;-75
2023/07/01 03:02:44;;;;;;;6.60;6.10;;;;;;;16.18;100.00;63673.31;5043650;28;20236;-76
2023/07/01 03:05:12;;;;;;;6.22;5.72;;;;;;;16.25;100.00;63682.09;5044452;28;20207;-76
2023/07/01 03:07:40;;;;;;;6.60;6.13;;;;;;;16.23;100.00;63677.47;5053536;28;20201;-77
2023/07/01 03:10:10;;;;;;;18.92;6.72;;;;;;;16.28;100.00;63685.75;5049294;28;20205;-76
2023/07/01 03:12:37;;;;;;;6.55;6.05;;;;;;;16.32;100.00;63686.81;5057459;28;20412;-75
2023/07/01 03:15:04;;;;;;;8.48;6.65;;;;;;;16.39;100.00;63691.53;5050153;28;20225;-74
2023/07/01 03:17:31;;;;;;;6.63;6.13;;;;;;;16.37;100.00;63689.44;5044545;28;20241;-75
2023/07/01 03:19:58;;;;;;;6.43;5.82;;;;;;;16.41;100.00;63696.19;5051700;28;20260;-76
2023/07/01 03:22:25;;;;;;;7.60;6.82;;;;;;;16.49;100.00;63699.91;5043978;28;20275;-75
2023/07/01 03:24:52;;;;;;;6.35;5.70;;;;;;;16.55;100.00;63713.34;5043978;28;20202;-75
2023/07/01 03:27:20;;;;;;;6.50;6.00;;;;;;;16.57;100.00;63707.69;5053056;28;20224;-76
2023/07/01 03:29:47;;;;;;;5.43;5.03;;;;;;;16.60;100.00;63719.06;5060801;28;20200;-76
2023/07/01 03:32:14;;;;;;;6.88;5.70;;;;;;;16.64;100.00;63722.69;5065004;28;20235;-76
2023/07/01 03:34:41;;;;;;;5.07;4.68;;;;;;;16.63;100.00;63719.09;5063891;28;20204;-76
2023/07/01 03:37:08;;;;;;;6.03;5.28;;;;;;;16.68;100.00;63724.81;5051277;28;20291;-75
2023/07/01 03:39:35;;;;;;;6.93;5.57;;;;;;;16.70;100.00;63726.91;5043114;28;20233;-74
2023/07/01 03:42:01;;;;;;;5.72;5.15;;;;;;;16.65;100.00;63718.59;5056189;28;20340;-74
2023/07/01 03:44:30;;;;;;;6.93;6.32;;;;;;;16.64;100.00;63723.22;5044953;28;20486;-74
2023/07/01 03:46:56;;;;;;;6.00;5.50;;;;;;;16.63;100.00;63719.63;5053612;28;20239;-75
2023/07/01 03:49:23;;;;;;;6.40;6.00;;;;;;;16.73;100.00;63732.06;5063056;28;20271;-75
2023/07/01 03:51:51;;;;;;;6.70;6.20;;;;;;;16.78;100.00;63730.09;5049724;28;20237;-75
2023/07/01 03:54:18;;;;;;;7.35;6.68;;;;;;;16.82;100.00;63741.97;5050489;28;20208;-75
2023/07/01 03:56:45;;;;;;;12.80;8.35;;;;;;;16.87;100.00;63741.50;5048207;28;20225;-76
2023/07/01 03:59:12;;;;;;;10.65;7.97;;;;;;;17.05;100.00;63760.25;5043422;28;20379;-76
2023/07/01 04:01:41;;;;;;;9.25;8.35;;;;;;;17.11;100.00;63769.56;5050101;28;20221;-75
2023/07/01 04:04:09;;;;;;;9.07;8.27;;;;;;;16.98;100.00;63756.03;5051199;28;20205;-75
2023/07/01 04:06:36;;;;;;;9.48;8.25;;;;;;;17.05;100.00;63758.19;5047754;28;20288;-75
2023/07/01 04:09:03;;;;;;;9.80;8.80;;;;;;;16.98;100.00;63758.59;5057329;28;20208;-74
2023/07/01 04:11:30;;;;;;;10.20;8.75;;;;;;;16.93;100.00;63747.72;5056259;28;20259;-76
2023/07/01 04:13:57;;;;;;;9.85;8.95;;;;;;;17.07;100.00;63767.97;5060071;28;20209;-76
2023/07/01 04:16:24;;;;;;;10.90;8.20;;;;;;;17.09;100.00;63767.50;5047501;28;20267;-75
2023/07/01 04:18:53;;;;;;;12.48;8.95;;;;;;;17.04;100.00;63762.28;5051234;28;20201;-74
2023/07/01 04:21:21;;;;;;;12.25;8.93;;;;;;;16.87;100.00;63746.63;5059664;28;20220;-74
2023/07/01 04:23:48;;;;;;;10.57;9.40;;;;;;;17.11;100.00;63772.16;5058030;28;20196;-76
2023/07/01 04:26:15;;;;;;;10.57;8.45;;;;;;;17.30;100.00;63786.78;5066823;28;20271;-75
2023/07/01 04:28:42;;;;;;;14.57;9.05;;;;;;;17.25;100.00;63781.06;5065263;28;20219;-75
2023/07/01 04:31:09;;;;;;;14.60;9.52;;;;;;;17.40;100.00;63798.72;5056158;28;20264;-75
2023/07/01 04:33:36;;;;;;;10.40;8.60;;;;;;;17.52;100.00;63813.78;5046781;28;20209;-76
2023/07/01 04:36:04;;;;;;;9.73;8.90;;;;;;;17.61;100.00;63818.03;5063334;28;20224;-74
2023/07/01 04:38:31;;;;;;;12.80;8.73;;;;;;;17.62;100.00;63824.22;5058726;28;20299;-76
2023/07/01 04:40:58;;;;;;;10.98;8.82;;;;;;;17.70;100.00;63830.50;5044795;28;20225;-75
2023/07/01 04:43:25;;;;;;;12.32;8.57;;;;;;;17.68;100.00;63830.47;5040410;28;20453;-74
2023/07/01 04:45:52;;;;;;;9.20;8.30;;;;;;;17.73;100.00;63827.94;5041715;28;20239;-76
2023/07/01 04:48:20;;;;;;;9.80;8.27;;;;;;;17.83;100.00;63846.63;5043444;28;20200;-75
2023/07/01 04:50:46;;;;;;;10.50;9.02;;;;;;;18.03;100.00;63861.78;5047106;28;20243;-75
2023/07/01 04:53:15;;;;;;;11.57;8.75;;;;;;;18.14;100.00;63876.31;5056322;28;20228;-77
2023/07/01 04:55:41;;;;;;;11.35;9.18;;;;;;;18.35;100.00;63897.69;5050562;28;20236;-76
2023/07/01 04:58:09;;;;;;;9.45;8.50;;;;;;;18.56;100.00;63919.06;5052932;28;20234;-76
2023/07/01 05:00:38;;;;;;;9.73;8.60;;;;;;;18.52;100.00;63915.41;5060031;28;20217;-76
2023/07/01 05:03:05;;;;;;;10.93;9.45;;;;;;;18.42;100.00;63905.53;5047522;28;20205;-76
2023/07/01 05:05:32;;;;;;;9.88;8.95;;;;;;;18.35;100.00;63895.63;5049534;28;20276;-75
2023/07/01 05:07:59;;;;;;;9.88;8.98;;;;;;;18.36;100.00;63896.16;5058631;28;20212;-75
2023/07/01 05:10:28;;;;;;;15.38;9.30;;;;;;;18.47;100.00;63912.78;5049192;28;20217;-76
2023/07/01 05:12:56;;;;;;;9.90;8.82;;;;;;;18.73;100.00;63939.38;5046375;28;20240;-77
2023/07/01 05:15:23;;;;;;;10.77;8.45;;;;;;;18.78;100.00;63942.00;5047019;28;20208;-75
2023/07/01 05:17:50;;;;;;;10.07;8.10;;;;;;;18.91;100.00;63952.97;5045695;28;20201;-75
2023/07/01 05:20:17;;;;;;;12.20;8.43;;;;;;;18.95;100.00;63957.13;5066846;28;20222;-74
2023/07/01 05:22:44;;;;;;;9.93;8.93;;;;;;;18.95;100.00;63960.25;5067055;28;20208;-75
2023/07/01 05:25:11;;;;;;;11.48;9.18;;;;;;;18.90;100.00;63954.50;5059551;28;20243;-75
2023/07/01 05:27:40;;;;;;;13.90;9.23;;;;;;;19.02;100.00;63964.44;5050532;28;20232;-75
2023/07/01 05:30:09;;;;;;;11.65;8.27;;;;;;;19.18;100.00;63991.97;5061489;28;20211;-75
2023/07/01 05:32:36;;;;;;;12.60;9.52;;;;;;;19.34;96.93;64000.41;5067031;28;20299;-75
2023/07/01 05:35:03;;;;;;;8.85;8.02;;;;;;;19.24;98.37;63987.88;5065947;28;20204;-74
2023/07/01 05:37:30;;;;;;;8.80;7.88;;;;;;;19.38;98.52;63997.34;5058959;28;20296;-76
2023/07/01 05:39:57;;;;;;;11.55;7.72;;;;;;;19.72;96.87;64042.63;5066562;28;20552;-76
2023/07/01 05:42:23;;;;;;;9.55;8.60;;;;;;;19.66;93.00;64033.25;5057691;28;20540;-75
2023/07/01 05:44:52;;;;;;;9.07;8.18;;;;;;;19.62;90.84;64029.63;5051180;28;20196;-74
2023/07/01 05:47:18;;;;;;;10.48;8.50;;;;;;;19.52;89.12;64016.59;5064830;28;20228;-75
2023/07/01 05:49:46;;;;;;;7.90;7.30;;;;;;;19.63;88.64;64035.28;5065849;28;20216;-76
2023/07/01 05:52:13;;;;;;;7.82;7.13;;;;;;;19.81;90.55;64051.50;5066383;28;20240;-77
2023/07/01 05:54:40;;;;;;;10.75;8.13;;;;;;;19.88;90.87;64056.22;5058800;28;20246;-76
2023/07/01 05:57:10;;;;;;;9.18;7.57;;;;;;;20.05;89.04;64074.47;5047774;28;20248;-75
2023/07/01 05:59:37;;;;;;;7.72;7.05;;;;;;;20.28;87.11;64098.47;5048611;28;20413;-76
2023/07/01 06:02:05;;;;;;;8.35;7.65;;;;;;;20.47;84.59;64120.91;5060039;28;20220;-74
2023/07/01 06:04:32;;;;;;;9.02;7.78;;;;;;;20.57;82.83;64131.34;5045192;28;20224;-76
2023/07/01 06:07:02;;;;;;;9.00;7.38;;;;;;;20.68;81.51;64140.25;5045694;28;20221;-75
2023/07/01 06:09:29;;;;;;;7.38;6.78;;;;;;;20.77;81.43;64148.59;5052945;28;20205;-76
2023/07/01 06:11:56;;;;;;;8.05;6.45;;;;;;;20.82;79.00;64151.75;5045558;28;20247;-75
2023/07/01 06:14:23;;;;;;;7.10;6.50;;;;;;;20.86;78.98;64158.50;5064011;28;20259;-76
2023/07/01 06:16:49;;;;;;;7.75;6.95;;;;;;;21.01;78.21;64176.25;5066575;28;20223;-76
2023/07/01 06:19:18;;;;;;;7.70;7.07;;;;;;;20.79;78.84;64150.69;5065634;28;20239;-77
2023/07/01 06:21:46;;;;;;;8.50;7.70;;;;;;;20.82;78.97;64159.50;5059829;28;20502;-75
2023/07/01 06:24:12;;;;;;;13.80;8.15;;;;;;;20.95;78.23;64167.91;5045289;28;20201;-76
2023/07/01 06:26:40;;;;;;;7.60;6.93;;;;;;;21.03;77.75;64178.88;5047168;28;20221;-74
2023/07/01 06:29:07;;;;;;;11.55;7.93;;;;;;;21.17;76.57;64190.91;5047998;28;20309;-76
2023/07/01 06:31:33;;;;;;;8.38;7.72;;;;;;;21.30;76.47;64204.47;5045621;28;20323;-75
2023/07/01 06:34:00;;;;;;;10.50;8.25;;;;;;;21.28;74.60;64207.56;5045844;28;20498;-74
2023/07/01 06:36:29;;;;;;;7.40;6.68;;;;;;;21.21;77.43;64197.66;5045145;28;20225;-76
2023/07/01 06:38:56;;;;;;;8.27;7.47;;;;;;;21.19;74.70;64195.06;5045348;28;20213;-75
2023/07/01 06:41:23;;;;;;;8.95;6.88;;;;;;;21.20;72.61;64193.50;5070694;28;20230;-76
2023/07/01 06:43:50;;;;;;;8.13;7.40;;;;;;;21.29;70.07;64206.03;5046040;28;20265;-75
2023/07/01 06:46:17;;;;;;;7.20;6.57;;;;;;;21.46;73.29;64221.19;5049554;28;20300;-76
2023/07/01 06:48:44;;;;;;;8.68;6.70;;;;;;;21.47;69.32;64224.81;5059012;28;20325;-74
2023/07/01 06:51:10;;;;;;;6.50;5.90;;;;;;;21.57;65.92;64234.75;5045526;28;20649;-76
2023/07/01 06:53:41;;;;;;;7.93;7.15;;;;;;;21.61;66.83;64239.44;5047934;28;20269;-75
2023/07/01 06:56:09;;;;;;;7.25;6.55;;;;;;;21.71;67.94;64247.31;5049905;28;20217;-75
2023/07/01 06:58:36;;;;;;;7.93;7.10;;;;;;;21.75;70.10;64250.97;5054427;28;20208;-75
2023/07/01 07:01:04;;;;;;;9.15;7.35;;;;;;;21.71;68.95;64247.31;5062320;28;20229;-74
2023/07/01 07:03:31;;;;;;;8.40;7.60;;;;;;;21.75;69.63;64253.56;5045858;28;20209;-77
2023/07/01 07:05:59;;;;;;;8.60;7.70;;;;;;;22.01;68.48;64278.16;5051271;28;20228;-78
2023/07/01 07:08:28;;;;;;;7.72;7.10;;;;;;;22.10;69.08;64289.63;5051818;28;20242;-76
2023/07/01 07:10:56;;;;;;;9.20;6.85;;;;;;;22.33;69.43;64311.06;5047271;28;20225;-76
2023/07/01 07:13:23;;;;;;;7.50;6.78;;;;;;;22.61;70.88;64340.88;5045722;28;20237;-75
2023/07/01 07:15:50;;;;;;;7.07;6.47;;;;;;;22.81;71.04;64366.97;5045445;28;20245;-77
2023/07/01 07:18:17;;;;;;;8.25;7.32;;;;;;;22.83;67.45;64361.28;5046616;28;20525;-75
2023/07/01 07:20:44;;;;;;;7.35;6.38;;;;;;;23.04;68.53;64387.91;5045112;28;20225;-75
2023/07/01 07:23:11;;;;;;;11.32;7.43;;;;;;;23.05;65.37;64391.56;5043024;28;20384;-76
2023/07/01 07:25:39;;;;;;;8.20;7.35;;;;;;;23.14;62.97;64395.78;5057564;28;20387;-75
2023/07/01 07:28:08;;;;;;;8.52;6.00;;;;;;;23.17;62.31;64398.41;5047539;28;20216;-75
2023/07/01 07:30:34;;;;;;;10.20;7.78;;;;;;;23.21;61.52;64408.28;5044954;28;20260;-74
2023/07/01 07:33:01;;;;;;;6.93;6.22;;;;;;;23.16;63.74;64397.38;5054266;28;20235;-76
2023/07/01 07:35:28;;;;;;;7.63;7.00;;;;;;;23.26;63.22;64410.41;5066214;28;20292;-75
2023/07/01 07:37:55;;;;;;;6.45;5.85;;;;;;;23.22;62.41;64406.75;5064165;28;20243;-76
2023/07/01 07:40:22;;;;;;;6.28;5.72;;;;;;;23.25;62.88;64407.28;5065652;28;20489;-76
2023/07/01 07:42:52;;;;;;;6.63;6.05;;;;;;;23.38;61.25;64417.78;5061394;28;20228;-74
2023/07/01 07:45:21;;;;;;;6.35;5.85;;;;;;;23.43;58.17;64431.34;5066137;28;20319;-76
2023/07/01 07:47:48;;;;;;;6.43;5.82;;;;;;;23.53;59.86;64438.69;5065556;28;20428;-76
2023/07/01 07:50:15;;;;;;;10.32;5.82;;;;;;;23.49;58.31;64437.63;5065941;28;20235;-76
2023/07/01 07:52:42;;;;;;;7.30;6.55;;;;;;;23.25;57.48;64406.75;5064543;28;20236;-76
2023/07/01 07:55:11;;;;;;;6.63;5.60;;;;;;;23.48;57.47;64436.03;5049624;28;20478;-78
2023/07/01 07:57:39;;;;;;;5.25;4.90;;;;;;;23.65;57.89;64449.16;5044335;28;20352;-76
2023/07/01 08:00:09;;;;;;;6.65;5.95;;;;;;;24.02;57.79;64489.47;5045747;28;20212;-75
2023/07/01 08:02:44;;;;;;;6.50;5.90;;;;;;;24.26;57.69;64514.56;5045543;28;20263;-77
2023/07/01 08:05:16;;;;;;;6.40;5.80;;;;;;;24.32;57.22;64518.78;5045628;28;20231;-76
2023/07/01 08:07:42;;;;;;;6.18;5.65;;;;;;;24.13;54.85;64500.97;5045257;28;20201;-77
2023/07/01 08:10:10;;;;;;;6.30;5.85;;;;;;;24.19;56.70;64505.19;5043016;28;20208;-76
2023/07/01 08:12:37;;;;;;;6.35;5.85;;;;;;;24.39;58.74;64528.19;5044096;28;20244;-77
2023/07/01 08:15:05;;;;;;;6.47;6.07;;;;;;;24.64;56.57;64549.66;5044453;28;20240;-76
2023/07/01 08:17:31;;;;;;;6.78;6.05;;;;;;;24.60;54.30;64555.91;5049073;28;20228;-75
2023/07/01 08:20:00;;;;;;;6.32;5.78;;;;;;;24.36;53.55;64522.97;5065469;28;20227;-75
2023/07/01 08:22:26;;;;;;;6.72;6.22;;;;;;;24.47;53.08;64534.47;5057262;28;20576;-74
2023/07/01 08:24:53;;;;;;;5.25;4.85;;;;;;;24.46;55.13;64536.03;5043607;28;20209;-76
2023/07/01 08:27:20;;;;;;;6.43;5.72;;;;;;;24.65;56.96;64555.41;5054077;28;20232;-76
2023/07/01 08:29:47;;;;;;;6.53;5.47;;;;;;;24.93;53.62;64585.28;5062316;28;20483;-75
2023/07/01 08:32:14;;;;;;;11.55;6.57;;;;;;;25.11;52.22;64604.13;5063380;28;20231;-77
2023/07/01 08:34:41;;;;;;;5.90;5.30;;;;;;;25.21;52.31;64610.97;5063840;28;20204;-78
2023/07/01 08:37:09;;;;;;;6.13;5.63;;;;;;;25.22;52.81;64612.53;5061771;28;20288;-76
2023/07/01 08:39:37;;;;;;;6.63;5.78;;;;;;;25.00;50.94;64590.00;5064001;28;20550;-76
2023/07/01 08:42:06;;;;;;;5.32;4.90;;;;;;;25.08;52.70;64595.25;5047752;28;20233;-74
2023/07/01 08:44:34;;;;;;;6.10;5.60;;;;;;;25.30;52.97;64623.00;5045755;28;20225;-75
2023/07/01 08:47:02;;;;;;;5.63;5.28;;;;;;;25.33;49.98;64623.53;5064359;28;20228;-75
2023/07/01 08:49:30;;;;;;;5.82;5.22;;;;;;;25.43;50.32;64634.03;5067832;28;20513;-77
2023/07/01 08:52:05;;;;;;;5.50;4.63;;;;;;;25.71;47.74;64666.50;5068939;28;20228;-76
2023/07/01 08:54:36;;;;;;;6.20;5.60;;;;;;;25.71;48.10;64665.97;5056124;28;20211;-76
2023/07/01 08:57:02;;;;;;;6.70;5.70;;;;;;;25.76;50.32;64669.13;5048610;28;20221;-75
2023/07/01 08:59:29;;;;;;;8.00;5.43;;;;;;;25.81;49.46;64679.59;5047783;28;20261;-75
2023/07/01 09:01:58;;;;;;;6.25;5.57;;;;;;;25.82;49.26;64677.50;5047261;28;20393;-76
2023/07/01 09:04:26;;;;;;;6.78;5.40;;;;;;;26.05;49.30;64704.78;5047371;28;20205;-76
2023/07/01 09:06:52;;;;;;;5.43;5.00;;;;;;;25.70;50.30;64664.91;5047343;28;20232;-76
2023/07/01 09:09:19;;;;;;;5.35;4.95;;;;;;;25.78;50.72;64673.81;5054663;28;20218;-76
2023/07/01 09:11:47;;;;;;;6.30;5.38;;;;;;;25.94;49.44;64688.00;5046700;28;20217;-75
2023/07/01 09:14:14;;;;;;;6.43;5.63;;;;;;;26.13;49.78;64707.41;5060289;28;20232;-78
2023/07/01 09:16:41;;;;;;;6.40;5.25;;;;;;;26.32;48.32;64729.41;5047454;28;20417;-76
2023/07/01 09:19:14;;;;;;;5.22;4.72;;;;;;;26.47;47.88;64745.66;5047123;28;20205;-77
2023/07/01 09:21:41;;;;;;;8.05;6.18;;;;;;;25.99;49.72;64692.69;5053987;28;20245;-77
2023/07/01 09:24:12;;;;;;;6.85;6.13;;;;;;;25.84;50.86;64679.59;5048728;28;20220;-77
2023/07/01 09:26:39;;;;;;;6.78;5.93;;;;;;;25.70;51.90;64665.44;5047205;28;20225;-76
2023/07/01 09:29:14;;;;;;;10.68;5.70;;;;;;;25.98;50.56;64694.28;5046980;28;20209;-76
2023/07/01 09:31:47;;;;;;;7.10;6.25;;;;;;;26.19;51.03;64714.22;5058973;28;20257;-76
2023/07/01 09:34:14;;;;;;;7.03;6.40;;;;;;;26.26;52.41;64720.50;5055939;28;20238;-77
2023/07/01 09:36:41;;;;;;;6.47;5.88;;;;;;;26.44;50.79;64747.22;5066551;28;20232;-75
2023/07/01 09:39:09;;;;;;;6.10;5.55;;;;;;;26.07;48.79;64701.66;5064671;28;20212;-76
2023/07/01 09:41:36;;;;;;;6.85;6.25;;;;;;;26.39;48.64;64734.66;5077234;28;20295;-76
2023/07/01 09:44:18;;;;;;;6.90;6.30;;;;;;;26.55;49.10;64758.75;5046656;28;20280;-77
2023/07/01 09:46:47;;;;;;;13.50;6.25;;;;;;;26.00;49.93;64691.69;5045979;28;20240;-76
2023/07/01 09:49:14;;;;;;;10.27;5.93;;;;;;;25.90;50.50;64685.88;5045744;28;20255;-77
2023/07/01 09:51:49;;;;;;;6.35;5.80;;;;;;;25.98;49.84;64694.81;5055338;28;20271;-75
2023/07/01 09:54:26;;;;;;;6.30;5.90;;;;;;;25.96;50.78;64689.56;5059800;28;20228;-75
2023/07/01 09:56:54;;;;;;;6.40;5.47;;;;;;;26.20;52.16;64715.25;5047174;28;23053;-75
2023/07/01 09:59:23;;;;;;;5.80;5.40;;;;;;;26.55;50.65;64753.53;5047178;28;20265;-76
2023/07/01 10:01:50;;;;;;;5.25;4.82;;;;;;;26.80;51.67;64777.66;5065770;28;20694;-75
2023/07/01 10:04:19;;;;;;;5.75;5.35;;;;;;;26.97;50.02;64797.59;5065082;28;20231;-76
2023/07/01 10:06:46;;;;;;;6.22;5.68;;;;;;;27.01;47.31;64802.31;5063459;28;20227;-75
2023/07/01 10:09:12;;;;;;;6.15;5.35;;;;;;;26.76;47.78;64776.09;5051764;28;20201;-75
2023/07/01 10:11:40;;;;;;;6.07;5.50;;;;;;;26.73;47.85;64770.31;5045698;28;20557;-76
2023/07/01 10:14:09;;;;;;;5.70;5.25;;;;;;;26.84;50.65;64783.94;5046039;28;20228;-77
2023/07/01 10:16:47;;;;;;;6.82;5.55;;;;;;;27.12;54.54;64813.34;5045186;28;20221;-77
2023/07/01 10:19:28;;;;;;;6.05;5.53;;;;;;;27.33;51.90;64835.38;5058830;28;20247;-76
2023/07/01 10:22:15;;;;;;;5.97;4.78;;;;;;;27.61;52.71;64861.63;5045765;28;20229;-76
2023/07/01 10:24:42;;;;;;;6.32;5.78;;;;;;;27.84;49.69;64885.75;5053572;28;20218;-76
2023/07/01 10:27:10;;;;;;;5.60;5.25;;;;;;;27.86;48.70;64893.63;5053883;28;20284;-75
2023/07/01 10:29:40;;;;;;;6.25;5.63;;;;;;;27.93;49.38;64895.75;5063626;28;20272;-77
2023/07/01 10:32:33;;;;;;;5.60;5.30;;;;;;;27.90;47.52;64895.22;5053273;28;20253;-76
2023/07/01 10:35:11;;;;;;;6.10;5.60;;;;;;;27.80;46.96;64881.56;5045523;28;20270;-75
2023/07/01 10:37:38;;;;;;;6.60;6.00;;;;;;;27.87;47.65;64894.66;5046360;28;20205;-77
2023/07/01 10:40:44;;;;;;;8.13;6.07;;;;;;;27.67;47.93;64867.91;5048837;28;20248;-76
2023/07/01 10:43:26;;;;;;;6.03;5.60;;;;;;;27.74;48.42;64878.41;5057121;28;20226;-77
2023/07/01 10:46:24;;;;;;;6.88;6.22;;;;;;;27.74;48.44;64875.78;5051556;28;20221;-76
2023/07/01 10:49:11;;;;;;;5.90;5.43;;;;;;;27.89;49.40;64896.78;5005556;28;20213;-76
2023/07/01 10:52:06;;;;;;;7.07;6.57;;;;;;;27.92;47.33;64897.31;5051967;28;20221;-75
2023/07/01 10:54:35;;;;;;;5.82;5.43;;;;;;;27.80;48.07;64882.09;5045143;28;20253;-76
2023/07/01 10:57:18;;;;;;;9.38;6.35;;;;;;;28.12;48.16;64918.31;5050512;28;20216;-77
2023/07/01 10:59:45;;;;;;;5.90;5.40;;;;;;;28.31;46.01;64937.75;5044776;28;20520;-77
2023/07/01 11:02:39;;;;;;;6.70;6.10;;;;;;;28.53;46.41;64960.34;5045350;28;20554;-76
2023/07/01 11:05:10;;;;;;;5.53;5.07;;;;;;;28.31;45.53;64942.97;5045529;28;20209;-77
2023/07/01 11:07:41;;;;;;;6.70;6.10;;;;;;;28.34;47.72;64944.03;5045533;28;20224;-77
2023/07/01 11:10:10;;;;;;;5.97;5.57;;;;;;;28.18;48.08;64918.88;5056302;28;20235;-75
2023/07/01 11:12:38;;;;;;;5.70;5.30;;;;;;;28.22;47.06;64925.66;5066116;28;20211;-76
2023/07/01 11:15:05;;;;;;;7.18;5.10;;;;;;;28.36;46.33;64940.91;5064901;28;20236;-78
2023/07/01 11:17:32;;;;;;;9.55;5.82;;;;;;;28.55;45.83;64959.81;5064768;28;20247;-76
2023/07/01 11:19:59;;;;;;;6.25;5.75;;;;;;;28.65;48.50;64970.84;5062066;28;20231;-77
2023/07/01 11:22:28;;;;;;;6.78;6.03;;;;;;;28.65;46.29;64967.72;5049557;28;20222;-77
2023/07/01 11:25:03;;;;;;;6.68;6.22;;;;;;;28.42;45.32;64949.81;5045015;28;20409;-77
2023/07/01 11:27:30;;;;;;;6.28;5.72;;;;;;;28.35;46.17;64942.47;5046616;28;20256;-77
2023/07/01 11:29:57;;;;;;;6.00;5.60;;;;;;;28.47;47.21;64951.41;5045628;28;20423;-77
2023/07/01 11:32:24;;;;;;;5.93;5.53;;;;;;;28.51;45.50;64956.13;5045567;28;20225;-76
2023/07/01 11:34:57;;;;;;;6.05;5.50;;;;;;;28.64;46.53;64964.03;5044111;28;20233;-75
2023/07/01 11:37:25;;;;;;;5.82;5.43;;;;;;;28.46;47.91;64953.50;5056662;28;20385;-76